Time;durP1;ratioP1;P1;durP2;ratioP2;P2;SDS_P1;SDS_P2;PMS_P1;PMS_P2;Temp;Humidity;BMP_temperature;BMP_pressure;BME280_temperature;BME280_humidity;BME280_pressure;Samples;Min_cycle;Max_cycle;Signal;HPM_P1;HPM_P2
2021/10/03 00:00:31;;;;;;;;;;;;;;;7.18;93.81;99199.20;111826;1196;61057;-87
2021/10/03 00:03:15;;;;;;;;;;;;;;;7.13;93.63;99201.73;111806;1196;62528;-86
2021/10/03 00:05:42;;;;;;;;;;;;;;;7.10;93.76;99202.44;111923;1196;61049;-86
2021/10/03 00:08:09;;;;;;;;;;;;;;;7.05;93.84;99204.05;111736;1199;61181;-85
2021/10/03 00:10:35;;;;;;;;;;;;;;;7.03;94.06;99202.92;111897;1196;66031;-88
2021/10/03 00:13:05;;;;;;;;;;;;;;;7.03;94.24;99198.33;111895;1196;61078;-85
2021/10/03 00:15:32;;;;;;;;;;;;;;;7.02;94.17;99194.11;111844;1196;64128;-89
2021/10/03 00:17:59;;;;;;;;;;;;;;;7.01;94.28;99194.19;111834;1196;61071;-87
2021/10/03 00:20:26;;;;;;;;;;;;;;;6.99;94.15;99193.05;111876;1196;60986;-87
2021/10/03 00:22:52;;;;;;;;;;;;;;;6.95;94.18;99191.64;111845;1196;64678;-86
2021/10/03 00:25:20;;;;;;;;;;;;;;;6.93;94.25;99196.02;111816;1196;61031;-89
2021/10/03 00:27:46;;;;;;;;;;;;;;;6.89;94.13;99196.70;111812;1196;64003;-86
2021/10/03 00:30:14;;;;;;;;;;;;;;;6.88;94.28;99195.41;111773;1198;61097;-85
2021/10/03 00:32:41;;;;;;;;;;;;;;;6.86;94.39;99193.18;111854;1196;61053;-87
2021/10/03 00:35:08;;;;;;;;;;;;;;;6.84;94.53;99194.54;111807;1196;61039;-84
2021/10/03 00:37:35;;;;;;;;;;;;;;;6.84;94.64;99199.29;111841;1196;60958;-84
2021/10/03 00:40:02;;;;;;;;;;;;;;;6.83;94.59;99199.33;111713;1198;61054;-85
2021/10/03 00:42:29;;;;;;;;;;;;;;;6.81;94.64;99202.21;111829;1196;60957;-84
2021/10/03 00:44:55;;;;;;;;;;;;;;;6.80;94.65;99204.06;111829;1196;61075;-85
2021/10/03 00:47:22;;;;;;;;;;;;;;;6.78;94.66;99200.45;111798;1196;64697;-85
2021/10/03 00:49:48;;;;;;;;;;;;;;;6.75;94.71;99197.92;111867;1196;61097;-85
2021/10/03 00:52:15;;;;;;;;;;;;;;;6.74;94.73;99196.58;111807;1196;60993;-85
2021/10/03 00:54:41;;;;;;;;;;;;;;;6.74;94.93;99195.34;111772;1197;61017;-85
2021/10/03 00:57:08;;;;;;;;;;;;;;;6.75;95.14;99190.88;111824;1196;60954;-84
2021/10/03 00:59:35;;;;;;;;;;;;;;;6.75;95.03;99188.61;111815;1196;65811;-85
2021/10/03 01:02:03;;;;;;;;;;;;;;;6.72;94.99;99184.14;111801;1196;61034;-85
2021/10/03 01:04:29;;;;;;;;;;;;;;;6.69;94.98;99180.93;111808;1196;62698;-85
2021/10/03 01:06:56;;;;;;;;;;;;;;;6.66;95.00;99180.54;111890;1196;61053;-87
2021/10/03 01:09:22;;;;;;;;;;;;;;;6.64;94.99;99179.77;111789;1196;60961;-84
2021/10/03 01:11:49;;;;;;;;;;;;;;;6.61;95.15;99179.88;111793;1196;61111;-84
2021/10/03 01:14:16;;;;;;;;;;;;;;;6.59;95.16;99178.58;111821;1196;61071;-84
2021/10/03 01:16:43;;;;;;;;;;;;;;;6.60;95.66;99175.68;111838;1196;62666;-84
2021/10/03 01:19:09;;;;;;;;;;;;;;;6.60;95.64;99174.10;111839;1196;61047;-85
2021/10/03 01:21:36;;;;;;;;;;;;;;;6.58;95.49;99166.60;111843;1196;61052;-85
2021/10/03 01:24:03;;;;;;;;;;;;;;;6.56;95.43;99168.45;111804;1196;64667;-85
2021/10/03 01:26:30;;;;;;;;;;;;;;;6.54;95.38;99166.98;111836;1196;61063;-85
2021/10/03 01:28:56;;;;;;;;;;;;;;;6.50;95.14;99170.70;111873;1196;61067;-85
2021/10/03 01:31:24;;;;;;;;;;;;;;;6.47;95.36;99168.39;111868;1196;61073;-85
2021/10/03 01:33:52;;;;;;;;;;;;;;;6.45;95.38;99163.73;111811;1196;61167;-85
2021/10/03 01:36:22;;;;;;;;;;;;;;;6.42;95.52;99166.52;111820;1196;66079;-85
2021/10/03 01:38:59;;;;;;;;;;;;;;;6.40;95.58;99167.11;111873;1196;61054;-84
2021/10/03 01:41:26;;;;;;;;;;;;;;;6.39;95.59;99165.94;111781;1198;62614;-84
2021/10/03 01:43:52;;;;;;;;;;;;;;;6.38;95.65;99161.73;111849;1196;61010;-85
2021/10/03 01:46:19;;;;;;;;;;;;;;;6.38;95.79;99155.36;111859;1196;60988;-85
2021/10/03 01:48:46;;;;;;;;;;;;;;;6.38;95.90;99150.42;111793;1196;61019;-85
2021/10/03 01:51:14;;;;;;;;;;;;;;;6.37;95.83;99148.92;111819;1196;60987;-85
2021/10/03 01:53:42;;;;;;;;;;;;;;;6.34;95.86;99149.54;111807;1196;62646;-85
2021/10/03 01:56:09;;;;;;;;;;;;;;;6.35;96.31;99147.20;111817;1196;60993;-85
2021/10/03 01:58:38;;;;;;;;;;;;;;;6.36;96.30;99145.74;111853;1196;61013;-85
2021/10/03 02:01:07;;;;;;;;;;;;;;;6.36;96.32;99143.63;111857;1196;66728;-85
2021/10/03 02:03:33;;;;;;;;;;;;;;;6.36;96.49;99136.91;111899;1196;60985;-85
2021/10/03 02:06:00;;;;;;;;;;;;;;;6.37;96.61;99131.08;111813;1196;61071;-85
2021/10/03 02:08:26;;;;;;;;;;;;;;;6.38;96.69;99126.63;111843;1196;61034;-85
2021/10/03 02:10:53;;;;;;;;;;;;;;;6.38;96.68;99124.68;111828;1196;61012;-85
2021/10/03 02:13:20;;;;;;;;;;;;;;;6.38;96.86;99121.48;111816;1196;65834;-85
2021/10/03 02:15:48;;;;;;;;;;;;;;;6.40;97.05;99115.95;111825;1196;61052;-85
2021/10/03 02:18:15;;;;;;;;;;;;;;;6.41;97.36;99113.61;111819;1196;63816;-86
2021/10/03 02:20:43;;;;;;;;;;;;;;;6.45;97.75;99118.16;111811;1196;61053;-84
2021/10/03 02:23:11;;;;;;;;;;;;;;;6.48;97.74;99118.91;111803;1196;61040;-84
2021/10/03 02:25:43;;;;;;;;;;;;;;;6.52;97.98;99115.71;111851;1198;65682;-84
2021/10/03 02:28:15;;;;;;;;;;;;;;;6.57;98.01;99111.75;111859;1196;60921;-85
2021/10/03 02:30:42;;;;;;;;;;;;;;;6.59;98.04;99110.77;111833;1196;63913;-85
2021/10/03 02:33:09;;;;;;;;;;;;;;;6.60;97.96;99109.85;111860;1196;61071;-84
2021/10/03 02:35:38;;;;;;;;;;;;;;;6.60;98.01;99109.86;111894;1196;61087;-85
2021/10/03 02:38:05;;;;;;;;;;;;;;;6.59;98.10;99114.81;111879;1196;66030;-85
2021/10/03 02:40:32;;;;;;;;;;;;;;;6.58;98.05;99114.02;111880;1196;60958;-86
2021/10/03 02:43:00;;;;;;;;;;;;;;;6.55;98.03;99110.11;111754;1196;62940;-86
2021/10/03 02:45:27;;;;;;;;;;;;;;;6.54;98.18;99106.61;111881;1196;61011;-86
2021/10/03 02:47:54;;;;;;;;;;;;;;;6.54;98.31;99107.33;111811;1196;61071;-86
2021/10/03 02:50:21;;;;;;;;;;;;;;;6.55;98.60;99104.45;111799;1196;60957;-86
2021/10/03 02:52:48;;;;;;;;;;;;;;;6.56;98.59;99100.17;111797;1196;60983;-84
2021/10/03 02:55:14;;;;;;;;;;;;;;;6.57;98.77;99095.16;111801;1196;61035;-84
2021/10/03 02:57:40;;;;;;;;;;;;;;;6.57;98.84;99092.52;111793;1199;60984;-84
2021/10/03 03:00:08;;;;;;;;;;;;;;;6.58;99.00;99088.58;111848;1196;61075;-84
2021/10/03 03:02:36;;;;;;;;;;;;;;;6.59;98.99;99095.25;111868;1196;66057;-84
2021/10/03 03:05:08;;;;;;;;;;;;;;;6.59;99.07;99097.75;111818;1197;61098;-84
2021/10/03 03:07:35;;;;;;;;;;;;;;;6.58;98.99;99099.00;111948;1196;65025;-84
2021/10/03 03:10:03;;;;;;;;;;;;;;;6.58;99.12;99099.19;111798;1196;60996;-84
2021/10/03 03:12:30;;;;;;;;;;;;;;;6.58;99.29;99101.65;111843;1196;61074;-85
2021/10/03 03:14:56;;;;;;;;;;;;;;;6.58;99.38;99103.06;111840;1196;60974;-84
2021/10/03 03:17:23;;;;;;;;;;;;;;;6.57;99.40;99106.45;111826;1196;61046;-86
2021/10/03 03:19:50;;;;;;;;;;;;;;;6.56;99.23;99106.36;111866;1196;64057;-84
2021/10/03 03:22:16;;;;;;;;;;;;;;;6.55;99.23;99107.29;111865;1196;61055;-84
2021/10/03 03:24:43;;;;;;;;;;;;;;;6.53;99.23;99106.33;111730;1196;60944;-84
2021/10/03 03:27:09;;;;;;;;;;;;;;;6.52;99.39;99100.70;111754;1196;64670;-85
2021/10/03 03:29:36;;;;;;;;;;;;;;;6.54;99.66;99100.96;111824;1196;61066;-84
2021/10/03 03:32:03;;;;;;;;;;;;;;;6.55;99.64;99102.31;111767;1198;64089;-84
2021/10/03 03:34:30;;;;;;;;;;;;;;;6.54;99.55;99099.36;111793;1198;61065;-84
2021/10/03 03:36:57;;;;;;;;;;;;;;;6.53;99.67;99098.88;111851;1196;61081;-84
2021/10/03 03:39:23;;;;;;;;;;;;;;;6.52;99.63;99105.50;111820;1196;64510;-85
2021/10/03 03:41:50;;;;;;;;;;;;;;;6.49;99.62;99109.35;111839;1196;60922;-85
2021/10/03 03:44:16;;;;;;;;;;;;;;;6.47;99.65;99112.25;111862;1196;61023;-85
2021/10/03 03:46:43;;;;;;;;;;;;;;;6.46;99.61;99109.14;111845;1196;61051;-85
2021/10/03 03:49:10;;;;;;;;;;;;;;;6.43;99.59;99110.67;111935;1196;61064;-84
2021/10/03 03:51:36;;;;;;;;;;;;;;;6.40;99.54;99108.55;111791;1196;64698;-84
2021/10/03 03:54:03;;;;;;;;;;;;;;;6.37;99.69;99104.94;111818;1196;61071;-85
2021/10/03 03:56:29;;;;;;;;;;;;;;;6.37;99.89;99106.16;111837;1196;60969;-84
2021/10/03 03:58:56;;;;;;;;;;;;;;;6.37;99.87;99102.48;111784;1198;61001;-85
2021/10/03 04:01:23;;;;;;;;;;;;;;;6.37;99.92;99104.95;111845;1196;61062;-85
2021/10/03 04:03:49;;;;;;;;;;;;;;;6.37;99.99;99099.65;111813;1196;66068;-85
2021/10/03 04:06:16;;;;;;;;;;;;;;;6.37;99.91;99101.77;111882;1196;60957;-85
2021/10/03 04:08:42;;;;;;;;;;;;;;;6.37;100.00;99104.09;111824;1196;61023;-85
2021/10/03 04:11:11;;;;;;;;;;;;;;;6.36;100.00;99108.52;111843;1196;61034;-85
2021/10/03 04:13:37;;;;;;;;;;;;;;;6.34;99.99;99101.76;111864;1196;61183;-85
2021/10/03 04:16:04;;;;;;;;;;;;;;;6.31;99.95;99097.31;111814;1196;59906;-85
2021/10/03 04:18:30;;;;;;;;;;;;;;;6.30;99.98;99094.03;111882;1196;60997;-85
2021/10/03 04:20:57;;;;;;;;;;;;;;;6.27;99.97;99095.05;111751;1200;61074;-85
2021/10/03 04:23:23;;;;;;;;;;;;;;;6.24;99.91;99100.13;111796;1196;60986;-85
2021/10/03 04:25:50;;;;;;;;;;;;;;;6.21;99.93;99096.41;111860;1196;60953;-85
2021/10/03 04:28:16;;;;;;;;;;;;;;;6.19;99.98;99101.96;111851;1196;61213;-85
2021/10/03 04:30:43;;;;;;;;;;;;;;;6.15;99.91;99098.79;111803;1196;61066;-85
2021/10/03 04:33:10;;;;;;;;;;;;;;;6.10;99.86;99100.41;111782;1196;63791;-85
2021/10/03 04:35:36;;;;;;;;;;;;;;;6.06;99.83;99101.84;111768;1197;61054;-85
2021/10/03 04:38:03;;;;;;;;;;;;;;;6.04;99.85;99101.23;111848;1196;60999;-85
2021/10/03 04:40:29;;;;;;;;;;;;;;;6.02;99.94;99101.33;111878;1196;60998;-85
2021/10/03 04:42:56;;;;;;;;;;;;;;;6.01;99.89;99099.64;111840;1196;61034;-85
2021/10/03 04:45:22;;;;;;;;;;;;;;;5.99;99.85;99104.47;111851;1196;61096;-85
2021/10/03 04:47:49;;;;;;;;;;;;;;;5.99;99.98;99105.20;111807;1196;60983;-85
2021/10/03 04:50:15;;;;;;;;;;;;;;;6.00;100.00;99107.92;111875;1196;60997;-85
2021/10/03 04:52:43;;;;;;;;;;;;;;;6.01;99.98;99110.02;111884;1196;64685;-85
2021/10/03 04:55:11;;;;;;;;;;;;;;;6.03;99.99;99105.67;111829;1196;60813;-83
2021/10/03 04:57:38;;;;;;;;;;;;;;;6.08;100.00;99102.27;111840;1196;62621;-84
2021/10/03 05:00:06;;;;;;;;;;;;;;;6.12;100.00;99099.26;111880;1196;61619;-84
2021/10/03 05:02:33;;;;;;;;;;;;;;;6.15;100.00;99102.83;111840;1196;61003;-86
2021/10/03 05:04:59;;;;;;;;;;;;;;;6.20;100.00;99104.55;111873;1196;64687;-84
2021/10/03 05:07:26;;;;;;;;;;;;;;;6.25;100.00;99105.01;111879;1196;61040;-84
2021/10/03 05:09:52;;;;;;;;;;;;;;;6.30;100.00;99106.69;111809;1196;62667;-84
2021/10/03 05:12:19;;;;;;;;;;;;;;;6.39;99.84;99104.85;111820;1196;61734;-86
2021/10/03 05:14:45;;;;;;;;;;;;;;;6.52;99.68;99103.20;111878;1196;61069;-86
2021/10/03 05:17:12;;;;;;;;;;;;;;;6.64;99.38;99097.67;111865;1196;61056;-85
2021/10/03 05:19:38;;;;;;;;;;;;;;;6.77;99.18;99092.27;111853;1196;60980;-86
2021/10/03 05:22:05;;;;;;;;;;;;;;;6.89;98.92;99096.42;111872;1196;61062;-85
2021/10/03 05:24:32;;;;;;;;;;;;;;;7.03;98.79;99097.33;111821;1196;61037;-86
2021/10/03 05:26:59;;;;;;;;;;;;;;;7.14;98.68;99093.89;111912;1196;60999;-87
2021/10/03 05:29:25;;;;;;;;;;;;;;;7.24;98.69;99099.04;111916;1196;66010;-85
2021/10/03 05:31:52;;;;;;;;;;;;;;;7.37;98.38;99102.08;111908;1196;60988;-85
2021/10/03 05:34:19;;;;;;;;;;;;;;;7.45;98.13;99108.00;111745;1196;61058;-86
2021/10/03 05:36:46;;;;;;;;;;;;;;;7.46;98.06;99106.05;111815;1196;60983;-86
2021/10/03 05:39:13;;;;;;;;;;;;;;;7.50;98.27;99101.80;111928;1196;61009;-86
2021/10/03 05:41:40;;;;;;;;;;;;;;;7.59;98.39;99093.52;111841;1196;61071;-86
2021/10/03 05:44:06;;;;;;;;;;;;;;;7.68;98.41;99094.80;111841;1196;60986;-86
2021/10/03 05:46:33;;;;;;;;;;;;;;;7.76;98.24;99096.34;111818;1196;61002;-86
2021/10/03 05:48:59;;;;;;;;;;;;;;;7.83;98.32;99097.53;111886;1196;61015;-86
2021/10/03 05:51:26;;;;;;;;;;;;;;;7.91;98.26;99094.06;111829;1196;60955;-85
2021/10/03 05:53:52;;;;;;;;;;;;;;;8.00;98.14;99083.66;111836;1196;60961;-86
2021/10/03 05:56:19;;;;;;;;;;;;;;;8.11;98.16;99080.04;111856;1196;61085;-86
2021/10/03 05:58:45;;;;;;;;;;;;;;;8.22;98.12;99079.30;111843;1196;63922;-86
2021/10/03 06:01:12;;;;;;;;;;;;;;;8.31;97.96;99084.83;111795;1196;60980;-86
2021/10/03 06:03:39;;;;;;;;;;;;;;;8.41;97.90;99089.03;111822;1196;60945;-86
2021/10/03 06:06:05;;;;;;;;;;;;;;;8.53;97.80;99087.50;111802;1196;65758;-86
2021/10/03 06:08:32;;;;;;;;;;;;;;;8.63;97.69;99082.83;111828;1197;61073;-86
2021/10/03 06:10:58;;;;;;;;;;;;;;;8.74;97.63;99078.29;111825;1196;61078;-86
2021/10/03 06:13:25;;;;;;;;;;;;;;;8.84;97.56;99074.36;111840;1196;61074;-84
2021/10/03 06:15:54;;;;;;;;;;;;;;;8.93;97.39;99071.88;111793;1196;61051;-86
2021/10/03 06:18:21;;;;;;;;;;;;;;;9.02;97.21;99070.29;111814;1196;64459;-85
2021/10/03 06:20:48;;;;;;;;;;;;;;;9.11;97.15;99069.89;111863;1196;61178;-85
2021/10/03 06:23:15;;;;;;;;;;;;;;;9.22;97.06;99064.83;111854;1196;63698;-85
2021/10/03 06:25:42;;;;;;;;;;;;;;;9.30;96.82;99067.36;111752;1198;60992;-85
2021/10/03 06:28:09;;;;;;;;;;;;;;;9.38;96.75;99066.52;111830;1196;61100;-85
2021/10/03 06:30:36;;;;;;;;;;;;;;;9.47;96.64;99066.67;111829;1196;60956;-85
2021/10/03 06:33:03;;;;;;;;;;;;;;;9.55;96.66;99065.30;111842;1196;61048;-85
2021/10/03 06:35:31;;;;;;;;;;;;;;;9.63;96.51;99065.70;111855;1196;64149;-85
2021/10/03 06:37:58;;;;;;;;;;;;;;;9.71;96.37;99064.84;111902;1196;61049;-85
2021/10/03 06:40:25;;;;;;;;;;;;;;;9.81;96.17;99060.86;111930;1196;61027;-85
2021/10/03 06:42:53;;;;;;;;;;;;;;;9.91;96.09;99066.43;111862;1196;64704;-85
2021/10/03 06:45:20;;;;;;;;;;;;;;;10.01;95.96;99064.23;111817;1196;60972;-85
2021/10/03 06:47:46;;;;;;;;;;;;;;;10.09;95.87;99065.62;111844;1196;64017;-85
2021/10/03 06:50:13;;;;;;;;;;;;;;;10.18;95.47;99067.54;111780;1196;61105;-82
2021/10/03 06:52:40;;;;;;;;;;;;;;;10.26;95.37;99069.55;111837;1196;61002;-82
2021/10/03 06:55:07;;;;;;;;;;;;;;;10.34;94.97;99066.59;111880;1196;64754;-82
2021/10/03 06:57:34;;;;;;;;;;;;;;;10.43;95.12;99070.57;111850;1196;61043;-82
2021/10/03 07:00:04;;;;;;;;;;;;;;;10.53;94.87;99073.47;111898;1197;63497;-83
2021/10/03 07:02:31;;;;;;;;;;;;;;;10.62;94.76;99069.23;111893;1196;61064;-81
2021/10/03 07:04:58;;;;;;;;;;;;;;;10.70;94.22;99067.94;111851;1196;61064;-81
2021/10/03 07:07:24;;;;;;;;;;;;;;;10.76;93.81;99064.00;111996;1196;64789;-82
2021/10/03 07:09:51;;;;;;;;;;;;;;;10.85;93.84;99064.98;111913;1195;61444;-82
2021/10/03 07:12:18;;;;;;;;;;;;;;;10.96;93.45;99059.29;111899;1196;63689;-82
2021/10/03 07:14:44;;;;;;;;;;;;;;;11.07;93.34;99056.59;111921;1195;61071;-83
2021/10/03 07:17:12;;;;;;;;;;;;;;;11.21;93.30;99056.69;111766;1196;61603;-82
2021/10/03 07:19:40;;;;;;;;;;;;;;;11.37;92.71;99056.69;111965;1195;66049;-82
2021/10/03 07:22:10;;;;;;;;;;;;;;;11.51;92.54;99059.22;111931;1195;61047;-82
2021/10/03 07:24:37;;;;;;;;;;;;;;;11.68;92.18;99055.02;111930;1195;64016;-82
2021/10/03 07:27:04;;;;;;;;;;;;;;;11.85;91.87;99046.57;111980;1196;61099;-82
2021/10/03 07:29:31;;;;;;;;;;;;;;;12.03;91.47;99042.45;111953;1195;60975;-82
2021/10/03 07:31:58;;;;;;;;;;;;;;;12.24;91.38;99039.27;111976;1196;66008;-82
2021/10/03 07:34:25;;;;;;;;;;;;;;;12.46;91.10;99047.44;111937;1196;61077;-82
2021/10/03 07:36:51;;;;;;;;;;;;;;;12.66;90.72;99053.30;111949;1195;62354;-82
2021/10/03 07:39:18;;;;;;;;;;;;;;;12.85;90.46;99051.17;111923;1195;61071;-82
2021/10/03 07:41:44;;;;;;;;;;;;;;;13.02;90.00;99047.92;111929;1195;61055;-82
2021/10/03 07:44:11;;;;;;;;;;;;;;;13.19;89.54;99047.88;111910;1195;64535;-83
2021/10/03 07:46:37;;;;;;;;;;;;;;;13.33;88.96;99043.27;111918;1195;60986;-83
2021/10/03 07:49:04;;;;;;;;;;;;;;;13.49;88.88;99044.16;111900;1195;61060;-83
2021/10/03 07:51:30;;;;;;;;;;;;;;;13.63;88.67;99043.05;111905;1195;61054;-83
2021/10/03 07:53:57;;;;;;;;;;;;;;;13.75;88.27;99040.44;111769;1195;61074;-83
2021/10/03 07:56:23;;;;;;;;;;;;;;;13.89;88.27;99036.54;111961;1195;61010;-83
2021/10/03 07:58:50;;;;;;;;;;;;;;;14.00;88.16;99040.11;111998;1195;61097;-83
2021/10/03 08:01:18;;;;;;;;;;;;;;;14.07;87.23;99039.89;111944;1195;64160;-83
2021/10/03 08:03:44;;;;;;;;;;;;;;;14.08;86.48;99035.94;111950;1195;61048;-83
2021/10/03 08:06:11;;;;;;;;;;;;;;;14.04;85.94;99033.36;111955;1196;61037;-83
2021/10/03 08:08:37;;;;;;;;;;;;;;;13.95;86.01;99028.33;111943;1195;65682;-83
2021/10/03 08:11:04;;;;;;;;;;;;;;;13.86;86.13;99032.48;111955;1195;61005;-83
2021/10/03 08:13:31;;;;;;;;;;;;;;;13.82;86.03;99034.05;111940;1195;62786;-83
2021/10/03 08:15:58;;;;;;;;;;;;;;;13.85;85.89;99030.95;111979;1195;61060;-82
2021/10/03 08:18:24;;;;;;;;;;;;;;;13.93;85.74;99032.80;111936;1195;61006;-82
2021/10/03 08:20:51;;;;;;;;;;;;;;;14.02;85.79;99028.16;112137;1195;66022;-84
2021/10/03 08:23:38;;;;;;;;;;;;;;;14.11;85.86;99027.65;113988;1189;61033;-93
2021/10/03 08:28:54;;;;;;;;;;;;;;;14.20;85.27;99023.23;113924;1193;61049;-96
2021/10/03 08:34:24;;;;;;;;;;;;;;;14.43;85.30;99013.38;111562;1195;64727;-86
2021/10/03 08:36:51;;;;;;;;;;;;;;;14.52;84.88;99014.25;112665;1196;61065;-94
2021/10/03 08:39:19;;;;;;;;;;;;;;;14.60;84.45;99018.23;111852;1196;63698;-92
2021/10/03 08:41:46;;;;;;;;;;;;;;;14.68;84.29;99015.83;112036;1195;61087;-86
2021/10/03 08:44:15;;;;;;;;;;;;;;;14.76;84.12;99019.08;112088;1195;61395;-90
2021/10/03 08:46:42;;;;;;;;;;;;;;;14.84;83.52;99013.94;111900;1197;66011;-92
2021/10/03 08:49:11;;;;;;;;;;;;;;;14.95;83.32;99011.42;111894;1196;61030;-92
2021/10/03 08:51:44;;;;;;;;;;;;;;;15.06;83.52;99005.94;112318;1196;62771;-96
2021/10/03 08:54:11;;;;;;;;;;;;;;;15.18;83.39;99007.26;112088;1196;60957;-85
2021/10/03 08:56:37;;;;;;;;;;;;;;;15.28;83.15;99004.83;111667;1195;61113;-87
2021/10/03 08:59:04;;;;;;;;;;;;;;;15.37;82.57;99004.61;112095;1196;61049;-85
2021/10/03 09:01:46;;;;;;;;;;;;;;;15.46;82.50;99003.45;112022;1196;61027;-86
2021/10/03 09:04:30;;;;;;;;;;;;;;;15.56;82.01;99003.39;112055;1197;62643;-85
2021/10/03 09:07:00;;;;;;;;;;;;;;;15.69;81.44;98995.67;112064;1196;61074;-85
2021/10/03 09:09:46;;;;;;;;;;;;;;;15.82;80.50;98993.85;112058;1196;61100;-85
2021/10/03 09:12:32;;;;;;;;;;;;;;;15.94;79.62;98991.93;112068;1196;65704;-84
2021/10/03 09:15:01;;;;;;;;;;;;;;;16.06;79.69;98990.33;113293;1174;60792;-92
2021/10/03 09:17:29;;;;;;;;;;;;;;;16.15;78.78;98991.98;112369;1196;62474;-91
2021/10/03 09:20:07;;;;;;;;;;;;;;;16.25;78.65;98988.90;112750;1193;61192;-91
2021/10/03 09:22:52;;;;;;;;;;;;;;;16.37;77.79;98983.34;112405;1193;61032;-90
2021/10/03 09:25:33;;;;;;;;;;;;;;;16.49;76.58;98983.55;112267;1193;66156;-94
2021/10/03 09:31:17;;;;;;;;;;;;;;;16.75;76.67;98975.38;113124;1181;62588;-93
2021/10/03 09:33:48;;;;;;;;;;;;;;;16.88;75.83;98972.04;112879;1193;61630;-91
2021/10/03 09:36:33;;;;;;;;;;;;;;;16.98;75.84;98969.34;112702;1193;60995;-91
2021/10/03 09:39:03;;;;;;;;;;;;;;;17.08;75.61;98967.11;113022;1196;65719;-96
2021/10/03 09:45:05;;;;;;;;;;;;;;;17.24;75.43;98966.00;112348;1193;66810;-94
2021/10/03 09:47:32;;;;;;;;;;;;;;;17.31;75.32;98961.92;113424;1193;61042;-95
2021/10/03 09:49:59;;;;;;;;;;;;;;;17.38;74.77;98958.05;112596;1193;61027;-92
2021/10/03 09:52:28;;;;;;;;;;;;;;;17.45;74.66;98953.88;112378;1195;66110;-89
2021/10/03 09:54:57;;;;;;;;;;;;;;;17.52;74.23;98953.79;112752;1193;61011;-93
2021/10/03 09:57:24;;;;;;;;;;;;;;;17.59;73.72;98957.83;112961;1196;63961;-94
2021/10/03 09:59:59;;;;;;;;;;;;;;;17.59;72.87;98956.35;112681;1193;60955;-95
2021/10/03 10:02:27;;;;;;;;;;;;;;;17.60;72.55;98959.11;112254;1193;60958;-91
2021/10/03 10:04:54;;;;;;;;;;;;;;;17.63;72.31;98954.86;112315;1193;64422;-91
2021/10/03 10:07:21;;;;;;;;;;;;;;;17.73;72.06;98952.98;112242;1193;61043;-92
2021/10/03 10:09:48;;;;;;;;;;;;;;;17.82;71.62;98950.14;112523;1195;63998;-90
2021/10/03 10:12:16;;;;;;;;;;;;;;;17.92;71.02;98950.43;112348;1193;61147;-92
2021/10/03 10:14:45;;;;;;;;;;;;;;;18.00;70.89;98953.99;112323;1193;61055;-91
2021/10/03 10:17:25;;;;;;;;;;;;;;;18.08;70.31;98947.98;112280;1196;66111;-90
2021/10/03 10:19:55;;;;;;;;;;;;;;;18.11;68.93;98953.41;113603;1193;59992;-90
2021/10/03 10:25:07;;;;;;;;;;;;;;;18.14;68.12;98939.88;114914;1181;59515;-89
2021/10/03 10:27:34;;;;;;;;;;;;;;;18.24;68.61;98931.85;112307;1194;61180;-89
2021/10/03 10:30:05;;;;;;;;;;;;;;;18.38;68.34;98933.88;112323;1193;61157;-89
2021/10/03 10:32:33;;;;;;;;;;;;;;;18.43;67.62;98932.59;112317;1193;61703;-89
2021/10/03 10:35:09;;;;;;;;;;;;;;;18.47;67.32;98931.03;112296;1193;63729;-89
2021/10/03 10:37:51;;;;;;;;;;;;;;;18.48;67.06;98931.80;112319;1193;61064;-88
2021/10/03 10:40:23;;;;;;;;;;;;;;;18.48;66.62;98930.13;112326;1193;61132;-89
2021/10/03 10:42:51;;;;;;;;;;;;;;;18.52;66.59;98931.21;112368;1193;64398;-89
2021/10/03 10:45:27;;;;;;;;;;;;;;;18.57;66.69;98925.09;112329;1193;60972;-89
2021/10/03 10:48:09;;;;;;;;;;;;;;;18.62;66.54;98922.20;112339;1193;64018;-89
2021/10/03 10:50:44;;;;;;;;;;;;;;;18.69;66.11;98920.86;112272;1193;61064;-89
2021/10/03 10:53:17;;;;;;;;;;;;;;;18.71;65.39;98918.45;112253;1193;60976;-89
2021/10/03 10:55:59;;;;;;;;;;;;;;;18.74;65.75;98918.55;112302;1193;64790;-89
2021/10/03 10:58:26;;;;;;;;;;;;;;;18.75;65.00;98911.04;112281;1193;61039;-89
2021/10/03 11:00:56;;;;;;;;;;;;;;;18.74;65.40;98907.18;112393;1193;63717;-88
2021/10/03 11:03:41;;;;;;;;;;;;;;;18.73;65.26;98904.97;112373;1193;61020;-88
2021/10/03 11:06:11;;;;;;;;;;;;;;;18.72;65.92;98903.21;112434;1193;61081;-91
2021/10/03 11:08:57;;;;;;;;;;;;;;;18.80;66.23;98901.55;112342;1193;64336;-91
2021/10/03 11:11:24;;;;;;;;;;;;;;;18.92;66.23;98897.76;112347;1193;61068;-90
2021/10/03 11:13:56;;;;;;;;;;;;;;;19.03;66.10;98899.14;112302;1193;64090;-92
2021/10/03 11:16:27;;;;;;;;;;;;;;;19.11;65.68;98897.27;112213;1195;60962;-90
2021/10/03 11:18:56;;;;;;;;;;;;;;;19.13;65.07;98894.57;112322;1193;60918;-88
2021/10/03 11:21:24;;;;;;;;;;;;;;;19.13;65.48;98887.31;112367;1193;65673;-87
2021/10/03 11:23:51;;;;;;;;;;;;;;;19.16;65.47;98882.14;112378;1195;60976;-89
2021/10/03 11:26:19;;;;;;;;;;;;;;;19.20;64.83;98877.39;113126;1193;64216;-88
2021/10/03 11:28:47;;;;;;;;;;;;;;;19.23;64.78;98875.32;113392;1193;61116;-89
2021/10/03 11:31:32;;;;;;;;;;;;;;;19.28;64.49;98878.59;112910;1193;61102;-87
2021/10/03 11:33:59;;;;;;;;;;;;;;;19.31;63.69;98874.31;113778;1193;64494;-88
2021/10/03 11:36:26;;;;;;;;;;;;;;;19.34;63.84;98867.67;112769;1193;61039;-88
2021/10/03 11:38:53;;;;;;;;;;;;;;;19.41;64.06;98871.55;112282;1193;64054;-93
2021/10/03 11:41:19;;;;;;;;;;;;;;;19.51;64.63;98871.60;112292;1193;61052;-92
2021/10/03 11:43:46;;;;;;;;;;;;;;;19.64;64.82;98868.48;112326;1193;61020;-90
2021/10/03 11:46:12;;;;;;;;;;;;;;;19.74;64.26;98864.34;112297;1193;61010;-88
2021/10/03 11:48:39;;;;;;;;;;;;;;;19.80;63.87;98859.40;112276;1193;61127;-89
2021/10/03 11:51:05;;;;;;;;;;;;;;;19.87;63.81;98855.62;112300;1193;61058;-89
2021/10/03 11:53:33;;;;;;;;;;;;;;;19.94;63.85;98857.83;112296;1195;60979;-88
2021/10/03 11:56:07;;;;;;;;;;;;;;;20.04;64.04;98851.80;112324;1193;61052;-88
2021/10/03 11:58:39;;;;;;;;;;;;;;;20.12;63.85;98849.98;112307;1193;66053;-89
2021/10/03 12:01:06;;;;;;;;;;;;;;;20.17;63.71;98848.13;112287;1193;61039;-88
2021/10/03 12:03:34;;;;;;;;;;;;;;;20.22;63.19;98846.21;112288;1194;64049;-89
2021/10/03 12:06:15;;;;;;;;;;;;;;;20.24;63.63;98844.55;112309;1193;61062;-89
2021/10/03 12:08:42;;;;;;;;;;;;;;;20.30;63.90;98844.05;112309;1193;61058;-89
2021/10/03 12:11:09;;;;;;;;;;;;;;;20.32;63.61;98847.09;112288;1193;66034;-89
2021/10/03 12:13:36;;;;;;;;;;;;;;;20.32;63.55;98842.15;112304;1193;61058;-89
2021/10/03 12:16:06;;;;;;;;;;;;;;;20.36;63.34;98842.06;112290;1193;63769;-89
2021/10/03 12:18:37;;;;;;;;;;;;;;;20.42;63.76;98847.23;112306;1193;61052;-88
2021/10/03 12:21:11;;;;;;;;;;;;;;;20.48;63.68;98841.85;112344;1193;61039;-89
2021/10/03 12:23:52;;;;;;;;;;;;;;;20.53;63.32;98831.05;112371;1193;66027;-90
2021/10/03 12:26:25;;;;;;;;;;;;;;;20.57;63.43;98828.45;112332;1195;61136;-88
2021/10/03 12:29:00;;;;;;;;;;;;;;;20.62;63.42;98828.75;112284;1193;64072;-88
2021/10/03 12:31:41;;;;;;;;;;;;;;;20.70;63.35;98821.77;112260;1195;61104;-89
2021/10/03 12:34:14;;;;;;;;;;;;;;;20.78;63.74;98816.15;112322;1193;61034;-89
2021/10/03 12:36:43;;;;;;;;;;;;;;;20.88;63.56;98811.77;112297;1193;64432;-89
2021/10/03 12:39:10;;;;;;;;;;;;;;;20.97;63.80;98807.23;112325;1193;60917;-89
2021/10/03 12:41:37;;;;;;;;;;;;;;;21.06;63.63;98800.53;112261;1195;64544;-89
2021/10/03 12:44:04;;;;;;;;;;;;;;;21.10;63.30;98803.13;112324;1193;61020;-89
2021/10/03 12:46:31;;;;;;;;;;;;;;;21.15;63.49;98802.98;112343;1193;60978;-89
2021/10/03 12:49:00;;;;;;;;;;;;;;;21.17;62.67;98798.77;112119;1193;65673;-90
2021/10/03 12:51:27;;;;;;;;;;;;;;;21.18;62.97;98799.38;112313;1196;61069;-89
2021/10/03 12:53:54;;;;;;;;;;;;;;;21.22;62.89;98799.27;112255;1196;62643;-89
2021/10/03 12:56:21;;;;;;;;;;;;;;;21.28;63.33;98799.64;112304;1193;61001;-89
2021/10/03 12:58:48;;;;;;;;;;;;;;;21.36;63.79;98796.29;112295;1195;61056;-90
2021/10/03 13:01:14;;;;;;;;;;;;;;;21.39;62.76;98793.56;112294;1193;66007;-89